createdAt,value
2022-08-05T00:01:30.136Z,101816.41
2022-08-05T00:04:03.331Z,101821.94
2022-08-05T00:06:33.303Z,101836.53
2022-08-05T00:09:03.857Z,101840.06
2022-08-05T00:11:35.012Z,101848.97
2022-08-05T00:14:12.693Z,101866.69
2022-08-05T00:16:52.358Z,101869.38
2022-08-05T00:19:22.228Z,101857.50
2022-08-05T00:21:48.931Z,101857.06
2022-08-05T00:24:16.329Z,101849.84
2022-08-05T00:26:52.187Z,101839.38
2022-08-05T00:29:22.730Z,101839.22
2022-08-05T00:32:10.882Z,101849.44
2022-08-05T00:34:43.362Z,101837.19
2022-08-05T00:37:26.866Z,101835.94
2022-08-05T00:40:13.434Z,101831.00
2022-08-05T00:42:44.167Z,101828.59
2022-08-05T00:45:15.784Z,101822.91
2022-08-05T00:47:57.169Z,101827.84
2022-08-05T00:50:28.929Z,101825.88
2022-08-05T00:52:55.515Z,101823.31
2022-08-05T00:55:23.421Z,101833.22
2022-08-05T00:58:11.315Z,101829.53
2022-08-05T01:00:38.636Z,101832.09
2022-08-05T01:03:07.595Z,101843.25
2022-08-05T01:05:35.079Z,101842.13
2022-08-05T01:08:41.182Z,101827.00
2022-08-05T01:11:02.667Z,101830.09
2022-08-05T01:13:58.835Z,101840.97
2022-08-05T01:16:52.461Z,101851.72
2022-08-05T01:19:30.145Z,101845.88
2022-08-05T01:22:28.055Z,101840.66
2022-08-05T01:25:24.271Z,101837.56
2022-08-05T01:28:16.857Z,101841.63
2022-08-05T01:30:55.064Z,101838.34
2022-08-05T01:33:25.337Z,101836.78
2022-08-05T01:35:55.189Z,101844.59
2022-08-05T01:38:29.165Z,101844.84
2022-08-05T01:41:17.030Z,101843.41
2022-08-05T01:43:50.834Z,101848.53
2022-08-05T01:46:42.559Z,101838.88
2022-08-05T01:49:23.246Z,101846.63
2022-08-05T01:51:54.027Z,101855.44
2022-08-05T01:54:25.479Z,101857.88
2022-08-05T01:58:09.315Z,101853.13
2022-08-05T01:59:47.450Z,101848.47
2022-08-05T02:02:16.048Z,101853.34
2022-08-05T02:04:46.238Z,101866.69
2022-08-05T02:07:22.077Z,101865.34
2022-08-05T02:09:50.264Z,101859.25
2022-08-05T02:12:32.882Z,101863.03
2022-08-05T02:15:12.254Z,101865.84
2022-08-05T02:18:33.135Z,101870.63
2022-08-05T02:21:27.739Z,101863.03
2022-08-05T02:24:07.151Z,101857.81
2022-08-05T02:26:39.178Z,101850.47
2022-08-05T02:29:24.274Z,101848.03
2022-08-05T02:32:10.794Z,101860.56
2022-08-05T02:34:38.245Z,101860.69
2022-08-05T02:39:51.653Z,101857.16
2022-08-05T02:42:25.756Z,101855.53
2022-08-05T02:44:53.152Z,101852.91
2022-08-05T02:47:21.702Z,101851.34
2022-08-05T02:49:49.733Z,101837.06
2022-08-05T02:52:29.996Z,101849.03
2022-08-05T02:54:58.588Z,101854.53
2022-08-05T02:58:10.421Z,101854.91
2022-08-05T03:00:16.953Z,101848.22
2022-08-05T03:02:46.757Z,101852.16
2022-08-05T03:05:15.093Z,101835.66
2022-08-05T03:08:06.705Z,101844.44
2022-08-05T03:10:29.640Z,101846.91
2022-08-05T03:15:23.507Z,101841.81
2022-08-05T03:17:50.448Z,101838.53
2022-08-05T03:20:20.880Z,101838.78
2022-08-05T03:22:50.144Z,101844.72
2022-08-05T03:26:04.039Z,101843.41
2022-08-05T03:28:10.490Z,101834.03
2022-08-05T03:30:41.103Z,101843.66
2022-08-05T03:33:09.317Z,101851.97
2022-08-05T03:35:40.805Z,101859.50
2022-08-05T03:38:11.482Z,101858.06
2022-08-05T03:40:45.222Z,101864.16
2022-08-05T03:44:08.972Z,101844.28
2022-08-05T03:46:15.503Z,101851.84
2022-08-05T03:48:45.324Z,101851.72
2022-08-05T03:55:53.358Z,101854.66
2022-08-05T03:56:58.906Z,101852.81
2022-08-05T03:59:46.912Z,101850.13
2022-08-05T04:02:17.563Z,101862.81
2022-08-05T04:05:03.178Z,101863.06
2022-08-05T04:07:30.917Z,101852.84
2022-08-05T04:10:02.900Z,101864.41
2022-08-05T04:12:29.965Z,101868.69
2022-08-05T04:14:59.781Z,101863.44
2022-08-05T04:17:55.460Z,101867.84
2022-08-05T04:20:21.395Z,101860.63
2022-08-05T04:22:50.301Z,101873.69
2022-08-05T04:25:17.253Z,101883.94
2022-08-05T04:27:58.214Z,101877.22
2022-08-05T04:30:26.649Z,101872.84
2022-08-05T04:32:53.224Z,101866.03
2022-08-05T04:35:20.059Z,101866.16
2022-08-05T04:38:02.829Z,101867.13
2022-08-05T04:40:35.306Z,101874.19
2022-08-05T04:43:01.953Z,101874.66
2022-08-05T04:45:48.433Z,101866.28
2022-08-05T04:48:16.573Z,101880.53
2022-08-05T04:51:03.264Z,101878.09
2022-08-05T04:53:36.440Z,101881.75
2022-08-05T04:56:32.765Z,101887.84
2022-08-05T04:58:53.111Z,101896.34
2022-08-05T05:02:04.011Z,101880.88
2022-08-05T05:04:06.011Z,101883.19
2022-08-05T05:06:39.907Z,101879.91
2022-08-05T05:09:14.022Z,101889.38
2022-08-05T05:11:55.616Z,101878.53
2022-08-05T05:14:31.843Z,101889.97
2022-08-05T05:17:01.912Z,101891.81
2022-08-05T05:19:36.358Z,101883.44
2022-08-05T05:22:24.338Z,101881.97
2022-08-05T05:24:58.536Z,101877.50
2022-08-05T05:27:44.395Z,101875.78
2022-08-05T05:30:15.601Z,101882.34
2022-08-05T05:32:55.832Z,101892.81
2022-08-05T05:35:23.073Z,101883.31
2022-08-05T05:37:59.624Z,101890.97
2022-08-05T05:40:28.487Z,101893.03
2022-08-05T05:42:56.295Z,101889.00
2022-08-05T05:45:24.781Z,101896.78
2022-08-05T05:48:06.011Z,101899.09
2022-08-05T05:50:43.846Z,101889.44
2022-08-05T05:53:21.034Z,101888.66
2022-08-05T05:55:52.328Z,101891.94
2022-08-05T05:58:30.344Z,101885.56
2022-08-05T06:01:12.263Z,101895.19
2022-08-05T06:04:01.198Z,101887.22
2022-08-05T06:06:31.028Z,101890.22
2022-08-05T06:08:59.865Z,101879.84
2022-08-05T06:11:26.364Z,101876.63
2022-08-05T06:13:55.736Z,101885.75
2022-08-05T06:16:28.396Z,101883.50
2022-08-05T06:18:59.942Z,101887.25
2022-08-05T06:21:36.855Z,101896.34
2022-08-05T06:24:11.434Z,101903.88
2022-08-05T06:26:51.105Z,101901.97
2022-08-05T06:29:25.248Z,101902.34
2022-08-05T06:32:26.217Z,101906.47
2022-08-05T06:34:56.286Z,101915.25
2022-08-05T06:37:56.301Z,101919.28
2022-08-05T06:40:20.792Z,101921.97
2022-08-05T06:42:48.211Z,101925.19
2022-08-05T06:45:44.874Z,101933.38
2022-08-05T06:48:36.960Z,101930.16
2022-08-05T06:50:57.211Z,101930.50
2022-08-05T06:53:28.547Z,101924.00
2022-08-05T06:56:00.050Z,101931.63
2022-08-05T06:58:35.152Z,101936.19
2022-08-05T07:01:05.598Z,101944.84
2022-08-05T07:03:33.343Z,101938.63
2022-08-05T07:06:01.986Z,101943.16
2022-08-05T07:08:32.837Z,101945.59
2022-08-05T07:10:59.586Z,101942.34
2022-08-05T07:13:58.779Z,101948.34
2022-08-05T07:17:59.395Z,101948.78
2022-08-05T07:22:22.438Z,101954.09
2022-08-05T07:24:56.297Z,101958.81
2022-08-05T07:27:22.909Z,101967.91
2022-08-05T07:30:24.136Z,101967.75
2022-08-05T07:32:43.291Z,101966.91
2022-08-05T07:36:03.792Z,101970.16
2022-08-05T07:38:00.513Z,101982.38
2022-08-05T07:40:32.061Z,101985.19
2022-08-05T07:42:59.170Z,101984.06
2022-08-05T07:45:31.166Z,101993.25
2022-08-05T07:48:12.613Z,101988.13
2022-08-05T07:50:39.938Z,101993.78
2022-08-05T07:53:09.111Z,101990.41
2022-08-05T07:56:04.905Z,101996.97
2022-08-05T07:58:58.539Z,102002.66
2022-08-05T08:01:12.889Z,101994.44
2022-08-05T08:03:44.332Z,102006.50
2022-08-05T08:06:11.500Z,102007.19
2022-08-05T08:08:38.139Z,102008.03
2022-08-05T08:11:04.817Z,102013.56
2022-08-05T08:13:42.696Z,102022.28
2022-08-05T08:16:34.808Z,102032.78
2022-08-05T08:19:02.376Z,102027.78
2022-08-05T08:21:28.821Z,102032.13
2022-08-05T08:24:01.801Z,102021.91
2022-08-05T08:26:30.998Z,102034.66
2022-08-05T08:29:09.763Z,102042.28
2022-08-05T08:31:46.281Z,102040.50
2022-08-05T08:34:14.866Z,102036.31
2022-08-05T08:36:48.851Z,102037.81
2022-08-05T08:39:19.210Z,102042.19
2022-08-05T08:41:51.858Z,102038.19
2022-08-05T08:45:18.820Z,102045.91
2022-08-05T08:48:05.618Z,102040.66
2022-08-05T08:50:30.425Z,102049.84
2022-08-05T08:53:07.879Z,102042.13
2022-08-05T08:56:02.666Z,102048.53
2022-08-05T08:58:37.073Z,102043.81
2022-08-05T09:01:15.599Z,102051.03
2022-08-05T09:03:45.701Z,102049.75
2022-08-05T09:06:16.943Z,102055.47
2022-08-05T09:08:45.350Z,102047.25
2022-08-05T09:11:13.832Z,102054.59
2022-08-05T09:14:10.013Z,102054.59
2022-08-05T09:16:28.103Z,102059.03
2022-08-05T09:18:55.384Z,102063.28
2022-08-05T09:22:21.852Z,102074.34
2022-08-05T09:24:13.092Z,102069.63
2022-08-05T09:26:43.711Z,102073.88
2022-08-05T09:29:10.845Z,102076.16
2022-08-05T09:32:51.841Z,102079.00
2022-08-05T09:34:56.126Z,102082.25
2022-08-05T09:38:16.987Z,102076.88
2022-08-05T09:40:36.380Z,102078.72
2022-08-05T09:43:08.405Z,102078.84
2022-08-05T09:46:07.168Z,102098.16
2022-08-05T09:48:30.675Z,102092.75
2022-08-05T09:51:04.315Z,102087.94
2022-08-05T09:53:54.703Z,102099.84
2022-08-05T09:56:31.125Z,102098.06
2022-08-05T09:59:00.249Z,102102.03
2022-08-05T10:01:31.692Z,102106.25
2022-08-05T10:04:04.577Z,102117.63
2022-08-05T10:06:59.572Z,102109.03
2022-08-05T10:09:29.464Z,102102.75
2022-08-05T10:12:18.599Z,102104.94
2022-08-05T10:15:21.023Z,102113.19
2022-08-05T10:18:16.658Z,102113.47
2022-08-05T10:20:52.564Z,102108.22
2022-08-05T10:23:34.354Z,102106.94
2022-08-05T10:26:14.368Z,102109.09
2022-08-05T10:28:42.951Z,102115.66
2022-08-05T10:32:47.090Z,102117.31
2022-08-05T10:33:59.325Z,102120.06
2022-08-05T10:36:27.152Z,102121.44
2022-08-05T10:39:10.153Z,102137.03
2022-08-05T10:41:47.387Z,102138.50
2022-08-05T10:44:18.113Z,102134.72
2022-08-05T10:46:53.960Z,102144.56
2022-08-05T10:49:27.079Z,102148.47
2022-08-05T10:52:03.253Z,102145.63
2022-08-05T10:54:56.832Z,102158.66
2022-08-05T10:57:30.909Z,102162.25
2022-08-05T11:00:23.124Z,102168.88
2022-08-05T11:02:58.937Z,102170.13
2022-08-05T11:06:16.032Z,102175.06
2022-08-05T11:09:16.755Z,102181.31
2022-08-05T11:11:53.581Z,102189.31
2022-08-05T11:17:58.769Z,102203.00
2022-08-05T11:20:44.660Z,102202.78
2022-08-05T11:23:33.702Z,102208.41
2022-08-05T11:26:28.384Z,102208.28
2022-08-05T11:29:06.581Z,102210.69
2022-08-05T11:31:54.115Z,102213.16
2022-08-05T11:34:51.125Z,102219.81
2022-08-05T11:38:37.323Z,102232.22
2022-08-05T11:41:34.701Z,102229.31
2022-08-05T11:44:06.033Z,102235.56
2022-08-05T11:47:09.488Z,102246.72
2022-08-05T11:49:25.461Z,102251.69
2022-08-05T11:51:57.726Z,102241.44
2022-08-05T11:54:33.489Z,102242.78
2022-08-05T11:57:08.012Z,102253.75
2022-08-05T11:59:49.492Z,102254.56
2022-08-05T12:02:30.420Z,102257.97
2022-08-05T12:04:59.293Z,102270.63
2022-08-05T12:08:08.341Z,102271.72
2022-08-05T12:10:17.185Z,102263.09
2022-08-05T12:12:58.379Z,102256.91
2022-08-05T12:15:35.811Z,102266.56
2022-08-05T12:18:11.969Z,102265.06
2022-08-05T12:20:39.415Z,102273.53
2022-08-05T12:23:13.503Z,102272.19
2022-08-05T12:25:53.723Z,102265.78
2022-08-05T12:28:37.586Z,102265.16
2022-08-05T12:31:04.997Z,102273.44
2022-08-05T12:33:37.219Z,102270.47
2022-08-05T12:36:09.258Z,102276.97
2022-08-05T12:38:39.601Z,102276.75
2022-08-05T12:41:16.380Z,102284.28
2022-08-05T12:44:28.592Z,102289.81
2022-08-05T12:47:01.642Z,102288.00
2022-08-05T12:50:04.682Z,102287.78
2022-08-05T12:52:30.421Z,102294.44
2022-08-05T12:55:02.207Z,102298.72
2022-08-05T12:58:38.644Z,102304.25
2022-08-05T13:02:03.860Z,102312.25
2022-08-05T13:03:12.041Z,102297.94
2022-08-05T13:05:41.184Z,102304.47
2022-08-05T13:08:08.851Z,102299.56
2022-08-05T13:10:50.635Z,102298.88
2022-08-05T13:14:04.992Z,102300.88
2022-08-05T13:16:12.969Z,102301.34
2022-08-05T13:18:57.678Z,102303.56
2022-08-05T13:21:27.828Z,102299.47
2022-08-05T13:24:04.384Z,102301.91
2022-08-05T13:26:31.119Z,102299.47
2022-08-05T13:28:59.204Z,102300.75
2022-08-05T13:31:34.006Z,102308.44
2022-08-05T13:34:21.506Z,102299.03
2022-08-05T13:36:52.017Z,102310.97
2022-08-05T13:39:24.382Z,102305.00
2022-08-05T13:42:05.111Z,102307.88
2022-08-05T13:44:32.741Z,102314.97
2022-08-05T13:47:01.952Z,102328.31
2022-08-05T13:49:31.594Z,102335.53
2022-08-05T13:52:35.221Z,102339.94
2022-08-05T13:55:07.980Z,102336.19
2022-08-05T13:57:51.089Z,102340.09
2022-08-05T14:00:27.077Z,102346.63
2022-08-05T14:02:56.374Z,102345.81
2022-08-05T14:05:29.242Z,102354.69
2022-08-05T14:08:20.421Z,102353.25
2022-08-05T14:10:48.652Z,102362.41
2022-08-05T14:13:15.518Z,102364.56
2022-08-05T14:16:07.071Z,102365.75
2022-08-05T14:18:29.035Z,102361.69
2022-08-05T14:20:55.457Z,102359.56
2022-08-05T14:23:25.110Z,102374.63
2022-08-05T14:25:58.169Z,102371.78
2022-08-05T14:28:29.471Z,102371.41
2022-08-05T14:31:00.582Z,102386.44
2022-08-05T14:33:27.551Z,102387.81
2022-08-05T14:36:14.126Z,102392.97
2022-08-05T14:38:40.535Z,102394.28
2022-08-05T14:41:08.205Z,102388.97
2022-08-05T14:44:01.810Z,102396.03
2022-08-05T14:46:28.466Z,102403.63
2022-08-05T14:48:59.522Z,102397.22
2022-08-05T14:51:31.057Z,102392.13
2022-08-05T14:54:28.753Z,102400.53
2022-08-05T14:56:46.758Z,102409.50
2022-08-05T15:01:54.645Z,102410.84
2022-08-05T15:04:23.217Z,102406.50
2022-08-05T15:06:54.083Z,102414.59
2022-08-05T15:09:50.528Z,102425.66
2022-08-05T15:12:11.489Z,102416.00
2022-08-05T15:14:49.563Z,102416.44
2022-08-05T15:17:46.289Z,102414.28
2022-08-05T15:20:30.889Z,102414.03
2022-08-05T15:23:06.833Z,102414.94
2022-08-05T15:25:41.202Z,102416.03
2022-08-05T15:28:19.633Z,102429.53
2022-08-05T15:30:53.141Z,102427.56
2022-08-05T15:34:04.642Z,102431.50
2022-08-05T15:36:16.752Z,102431.38
2022-08-05T15:38:44.720Z,102423.72
2022-08-05T15:41:22.732Z,102427.25
2022-08-05T15:43:51.396Z,102429.06
2022-08-05T15:46:19.688Z,102431.81
2022-08-05T15:48:52.746Z,102426.66
2022-08-05T15:52:04.505Z,102442.09
2022-08-05T15:54:15.686Z,102431.25
2022-08-05T15:56:44.570Z,102437.09
2022-08-05T15:59:19.957Z,102438.88
2022-08-05T16:01:53.306Z,102439.91
2022-08-05T16:04:25.698Z,102432.88
2022-08-05T16:06:53.769Z,102443.88
2022-08-05T16:09:22.265Z,102443.72
2022-08-05T16:11:52.814Z,102435.97
2022-08-05T16:14:20.091Z,102446.13
2022-08-05T16:16:47.106Z,102449.25
2022-08-05T16:19:25.270Z,102461.03
2022-08-05T16:21:59.443Z,102452.81
2022-08-05T16:24:41.394Z,102472.50
2022-08-05T16:27:16.303Z,102469.41
2022-08-05T16:29:47.226Z,102467.69
2022-08-05T16:32:17.318Z,102475.41
2022-08-05T16:34:50.765Z,102463.41
2022-08-05T16:38:03.006Z,102472.94
2022-08-05T16:40:07.508Z,102465.63
2022-08-05T16:42:40.057Z,102468.53
2022-08-05T16:46:05.826Z,102474.94
2022-08-05T16:47:56.426Z,102486.41
2022-08-05T16:50:26.203Z,102484.09
2022-08-05T16:52:52.819Z,102484.81
2022-08-05T16:55:23.157Z,102489.63
2022-08-05T16:57:59.915Z,102485.31
2022-08-05T17:00:34.412Z,102486.28
2022-08-05T17:03:15.468Z,102492.31
2022-08-05T17:05:50.181Z,102497.19
2022-08-05T17:08:33.394Z,102498.41
2022-08-05T17:11:08.728Z,102498.56
2022-08-05T17:13:37.283Z,102497.91
2022-08-05T17:16:29.869Z,102505.63
2022-08-05T17:18:54.502Z,102508.09
2022-08-05T17:21:20.943Z,102511.63
2022-08-05T17:24:03.769Z,102509.78
2022-08-05T17:26:33.371Z,102505.88
2022-08-05T17:28:59.765Z,102509.94
2022-08-05T17:31:56.537Z,102507.59
2022-08-05T17:34:18.068Z,102505.06
2022-08-05T17:36:44.729Z,102509.69
2022-08-05T17:39:23.755Z,102501.25
2022-08-05T17:42:20.410Z,102506.38
2022-08-05T17:44:37.533Z,102500.59
2022-08-05T17:47:04.145Z,102500.22
2022-08-05T17:49:59.875Z,102516.47
2022-08-05T17:52:17.229Z,102508.88
2022-08-05T17:54:43.732Z,102522.50
2022-08-05T17:57:12.059Z,102523.13
2022-08-05T17:59:40.061Z,102522.53
2022-08-05T18:02:10.846Z,102521.28
2022-08-05T18:04:51.418Z,102540.25
2022-08-05T18:07:20.116Z,102543.41
2022-08-05T18:09:58.721Z,102545.81
2022-08-05T18:12:27.406Z,102537.09
2022-08-05T18:14:55.270Z,102540.75
2022-08-05T18:18:00.481Z,102547.13
2022-08-05T18:20:14.929Z,102546.03
2022-08-05T18:22:54.739Z,102555.06
2022-08-05T18:25:33.156Z,102554.00
2022-08-05T18:27:59.854Z,102567.00
2022-08-05T18:30:32.245Z,102556.38
2022-08-05T18:33:00.807Z,102567.78
2022-08-05T18:36:00.851Z,102564.47
2022-08-05T18:38:25.902Z,102565.25
2022-08-05T18:41:53.902Z,102571.56
2022-08-05T18:43:53.058Z,102564.38
2022-08-05T18:46:20.648Z,102578.22
2022-08-05T18:48:51.892Z,102580.56
2022-08-05T18:52:06.916Z,102588.53
2022-08-05T18:54:30.905Z,102584.56
2022-08-05T18:57:00.862Z,102585.97
2022-08-05T18:59:43.750Z,102587.34
2022-08-05T19:02:26.970Z,102589.50
2022-08-05T19:05:03.189Z,102598.41
2022-08-05T19:07:45.959Z,102593.34
2022-08-05T19:10:18.420Z,102593.63
2022-08-05T19:12:53.270Z,102604.09
2022-08-05T19:15:56.806Z,102600.97
2022-08-05T19:18:10.479Z,102607.41
2022-08-05T19:20:41.375Z,102614.16
2022-08-05T19:24:03.588Z,102606.94
2022-08-05T19:26:01.643Z,102622.66
2022-08-05T19:28:29.204Z,102616.44
2022-08-05T19:30:55.861Z,102606.88
2022-08-05T19:33:36.229Z,102623.41
2022-08-05T19:36:06.882Z,102619.88
2022-08-05T19:38:36.999Z,102616.53
2022-08-05T19:41:07.366Z,102622.00
2022-08-05T19:44:05.629Z,102634.38
2022-08-05T19:46:30.135Z,102640.91
2022-08-05T19:49:03.035Z,102640.81
2022-08-05T19:52:08.661Z,102647.13
2022-08-05T19:54:45.871Z,102646.06
2022-08-05T19:57:15.300Z,102646.16
2022-08-05T19:59:55.205Z,102650.38
2022-08-05T20:02:31.523Z,102656.97
2022-08-05T20:04:58.917Z,102648.47
2022-08-05T20:07:45.746Z,102668.84
2022-08-05T20:10:13.806Z,102670.47
2022-08-05T20:12:46.068Z,102663.13
2022-08-05T20:15:48.782Z,102670.50
2022-08-05T20:18:10.520Z,102652.00
2022-08-05T20:20:56.595Z,102678.22
2022-08-05T20:23:39.552Z,102688.94
2022-08-05T20:26:16.536Z,102683.56
2022-08-05T20:28:53.759Z,102691.22
2022-08-05T20:31:37.189Z,102683.19
2022-08-05T20:34:12.371Z,102690.34
2022-08-05T20:36:43.369Z,102705.94
2022-08-05T20:39:13.165Z,102702.22
2022-08-05T20:41:44.265Z,102693.31
2022-08-05T20:44:19.418Z,102699.25
2022-08-05T20:47:03.288Z,102706.31
2022-08-05T20:49:33.230Z,102693.03
2022-08-05T20:52:06.269Z,102706.22
2022-08-05T20:54:55.181Z,102709.66
2022-08-05T20:57:42.269Z,102713.97
2022-08-05T21:00:40.726Z,102708.63
2022-08-05T21:03:00.124Z,102704.97
2022-08-05T21:05:38.131Z,102708.72
2022-08-05T21:08:14.632Z,102707.66
2022-08-05T21:10:48.644Z,102706.13
2022-08-05T21:13:36.734Z,102718.34
2022-08-05T21:16:02.284Z,102719.59
2022-08-05T21:18:30.178Z,102717.13
2022-08-05T21:20:57.303Z,102719.56
2022-08-05T21:23:24.577Z,102717.31
2022-08-05T21:25:55.405Z,102705.50
2022-08-05T21:28:23.914Z,102716.13
2022-08-05T21:30:57.040Z,102717.84
2022-08-05T21:33:23.701Z,102711.47
2022-08-05T21:35:58.232Z,102725.00
2022-08-05T21:38:26.409Z,102730.06
2022-08-05T21:40:53.049Z,102723.66
2022-08-05T21:43:24.146Z,102728.41
2022-08-05T21:45:57.633Z,102724.13
2022-08-05T21:48:27.999Z,102730.06
2022-08-05T21:50:54.923Z,102734.53
2022-08-05T21:53:27.019Z,102738.25
2022-08-05T21:56:05.200Z,102731.28
2022-08-05T21:58:41.983Z,102728.88
2022-08-05T22:01:10.625Z,102733.19
2022-08-05T22:03:51.854Z,102737.75
2022-08-05T22:06:22.843Z,102733.38
2022-08-05T22:09:01.506Z,102737.75
2022-08-05T22:11:39.855Z,102735.00
2022-08-05T22:14:32.761Z,102743.88
2022-08-05T22:16:57.029Z,102737.84
2022-08-05T22:20:03.443Z,102743.28
2022-08-05T22:22:15.436Z,102736.81
2022-08-05T22:25:01.426Z,102741.47
2022-08-05T22:28:09.537Z,102737.94
2022-08-05T22:30:32.277Z,102741.13
2022-08-05T22:33:01.959Z,102746.38
2022-08-05T22:35:31.223Z,102742.25
2022-08-05T22:38:14.613Z,102749.22
2022-08-05T22:40:41.834Z,102755.63
2022-08-05T22:43:16.231Z,102754.69
2022-08-05T22:46:08.772Z,102753.72
2022-08-05T22:48:39.228Z,102760.88
2022-08-05T22:51:06.843Z,102758.31
2022-08-05T22:53:33.519Z,102764.59
2022-08-05T22:56:02.514Z,102757.81
2022-08-05T22:58:28.963Z,102763.75
2022-08-05T23:00:57.048Z,102756.09
2022-08-05T23:03:58.125Z,102762.97
2022-08-05T23:06:10.293Z,102770.13
2022-08-05T23:08:36.847Z,102771.34
2022-08-05T23:11:03.526Z,102773.94
2022-08-05T23:13:29.987Z,102773.09
2022-08-05T23:15:56.706Z,102781.28
2022-08-05T23:18:23.111Z,102781.09
2022-08-05T23:20:49.593Z,102773.16
2022-08-05T23:23:16.511Z,102784.91
2022-08-05T23:25:53.203Z,102787.50
2022-08-05T23:28:30.841Z,102790.94
2022-08-05T23:31:14.795Z,102794.56
2022-08-05T23:34:04.083Z,102787.59
2022-08-05T23:36:38.383Z,102793.72
2022-08-05T23:39:05.538Z,102790.34
2022-08-05T23:41:34.289Z,102797.19
2022-08-05T23:44:06.467Z,102798.63
2022-08-05T23:46:37.449Z,102801.22
2022-08-05T23:49:16.442Z,102803.91
2022-08-05T23:52:02.832Z,102805.63
2022-08-05T23:55:31.226Z,102813.72
2022-08-05T23:58:00.699Z,102811.22
